createdAt,value
2018-12-24T00:01:23.510Z,2.33
2018-12-24T00:03:51.849Z,1.17
2018-12-24T00:06:20.086Z,1.40
2018-12-24T00:08:48.628Z,1.40
2018-12-24T00:11:16.892Z,1.20
2018-12-24T00:13:45.146Z,1.30
2018-12-24T00:16:13.379Z,1.13
2018-12-24T00:18:41.998Z,0.93
2018-12-24T00:21:10.547Z,1.10
2018-12-24T00:23:38.780Z,1.20
2018-12-24T00:26:07.455Z,1.00
2018-12-24T00:28:36.049Z,1.17
2018-12-24T00:31:04.298Z,1.30
2018-12-24T00:33:32.567Z,1.30
2018-12-24T00:36:01.114Z,1.30
2018-12-24T00:38:29.395Z,1.27
2018-12-24T00:40:57.898Z,1.50
2018-12-24T00:43:26.834Z,1.40
2018-12-24T00:45:55.402Z,1.40
2018-12-24T00:48:23.674Z,1.27
2018-12-24T00:50:52.193Z,1.10
2018-12-24T00:53:20.757Z,1.23
2018-12-24T00:55:49.358Z,0.90
2018-12-24T00:58:17.601Z,1.00
2018-12-24T01:00:45.854Z,0.87
2018-12-24T01:03:14.098Z,0.87
2018-12-24T01:05:42.436Z,0.90
2018-12-24T01:08:11.008Z,1.00
2018-12-24T01:10:39.275Z,0.80
2018-12-24T01:13:07.835Z,0.80
2018-12-24T01:15:36.076Z,0.80
2018-12-24T01:18:04.334Z,0.83
2018-12-24T01:20:33.903Z,0.90
2018-12-24T01:23:02.303Z,1.00
2018-12-24T01:25:30.540Z,1.00
2018-12-24T01:27:59.099Z,1.20
2018-12-24T01:30:27.661Z,0.87
2018-12-24T01:32:55.924Z,1.10
2018-12-24T01:35:24.154Z,0.90
2018-12-24T01:37:52.444Z,0.80
2018-12-24T01:40:20.678Z,0.90
2018-12-24T01:42:48.929Z,0.80
2018-12-24T01:45:17.178Z,0.90
2018-12-24T01:47:45.755Z,0.90
2018-12-24T01:50:14.340Z,0.90
2018-12-24T01:52:42.915Z,0.90
2018-12-24T01:55:11.178Z,0.97
2018-12-24T01:57:39.754Z,0.80
2018-12-24T02:00:08.415Z,0.90
2018-12-24T02:02:37.010Z,0.60
2018-12-24T02:05:05.276Z,0.70
2018-12-24T02:07:33.517Z,0.97
2018-12-24T02:10:02.108Z,0.90
2018-12-24T02:12:30.672Z,0.77
2018-12-24T02:14:59.242Z,1.00
2018-12-24T02:17:27.508Z,0.90
2018-12-24T02:19:55.770Z,0.77
2018-12-24T02:22:24.354Z,0.50
2018-12-24T02:24:52.911Z,0.50
2018-12-24T02:27:21.478Z,0.50
2018-12-24T02:29:49.988Z,0.60
2018-12-24T02:32:18.565Z,0.50
2018-12-24T02:34:47.142Z,0.60
2018-12-24T02:37:15.718Z,0.47
2018-12-24T02:39:43.994Z,0.80
2018-12-24T02:42:12.596Z,0.40
2018-12-24T02:44:41.355Z,0.50
2018-12-24T02:47:09.941Z,0.40
2018-12-24T02:49:38.219Z,0.50
2018-12-24T02:52:06.461Z,0.50
2018-12-24T02:54:35.057Z,0.70
2018-12-24T02:57:03.625Z,0.57
2018-12-24T02:59:31.898Z,0.60
2018-12-24T03:02:00.215Z,0.70
2018-12-24T03:04:28.467Z,0.67
2018-12-24T03:06:56.725Z,0.70
2018-12-24T03:09:25.433Z,0.57
2018-12-24T03:11:54.058Z,0.30
2018-12-24T03:14:22.297Z,0.50
2018-12-24T03:16:50.574Z,0.50
2018-12-24T03:19:18.810Z,0.30
2018-12-24T03:21:47.415Z,0.43
2018-12-24T03:24:16.007Z,0.40
2018-12-24T03:26:44.583Z,0.50
2018-12-24T03:29:12.847Z,0.47
2018-12-24T03:31:41.082Z,0.47
2018-12-24T03:34:09.706Z,0.30
2018-12-24T03:36:38.033Z,0.53
2018-12-24T03:39:06.299Z,0.60
2018-12-24T03:41:34.527Z,0.50
2018-12-24T03:44:03.132Z,0.40
2018-12-24T03:46:31.357Z,0.40
2018-12-24T03:48:59.920Z,0.40
2018-12-24T03:51:28.517Z,0.40
2018-12-24T03:53:57.068Z,0.40
2018-12-24T03:56:25.316Z,0.30
2018-12-24T03:58:53.625Z,0.50
2018-12-24T04:01:22.257Z,0.50
2018-12-24T04:03:50.900Z,0.57
2018-12-24T04:06:19.480Z,0.53
2018-12-24T04:08:47.718Z,0.60
2018-12-24T04:11:16.568Z,0.50
2018-12-24T04:13:45.155Z,0.70
2018-12-24T04:16:13.750Z,1.20
2018-12-24T04:18:42.331Z,1.07
2018-12-24T04:21:10.897Z,0.90
2018-12-24T04:23:39.479Z,0.80
2018-12-24T04:26:07.755Z,0.60
2018-12-24T04:28:36.032Z,0.60
2018-12-24T04:31:04.279Z,0.50
2018-12-24T04:33:32.828Z,0.60
2018-12-24T04:36:01.420Z,0.60
2018-12-24T04:38:30.169Z,0.77
2018-12-24T04:40:58.417Z,0.83
2018-12-24T04:43:32.037Z,0.70
2018-12-24T04:45:57.360Z,0.60
2018-12-24T04:48:25.989Z,0.60
2018-12-24T04:50:54.241Z,0.70
2018-12-24T04:53:22.500Z,0.80
2018-12-24T04:55:50.746Z,0.57
2018-12-24T04:58:19.345Z,0.70
2018-12-24T05:00:47.919Z,0.40
2018-12-24T05:03:16.524Z,0.50
2018-12-24T05:05:44.772Z,0.57
2018-12-24T05:08:13.044Z,0.37
2018-12-24T05:10:41.605Z,0.40
2018-12-24T05:13:10.183Z,0.40
2018-12-24T05:15:38.781Z,0.37
2018-12-24T05:18:07.302Z,0.30
2018-12-24T05:20:35.897Z,0.50
2018-12-24T05:23:04.527Z,0.50
2018-12-24T05:25:33.462Z,0.43
2018-12-24T05:28:01.692Z,0.50
2018-12-24T05:30:29.951Z,0.63
2018-12-24T05:32:58.889Z,0.30
2018-12-24T05:35:27.122Z,0.50
2018-12-24T05:37:55.689Z,0.67
2018-12-24T05:40:24.284Z,0.50
2018-12-24T05:42:52.848Z,0.40
2018-12-24T05:45:21.122Z,0.50
2018-12-24T05:47:49.697Z,0.50
2018-12-24T05:50:18.381Z,0.50
2018-12-24T05:52:46.941Z,0.40
2018-12-24T05:55:15.831Z,0.50
2018-12-24T05:57:44.090Z,0.60
2018-12-24T06:00:12.647Z,0.50
2018-12-24T06:02:41.253Z,0.60
2018-12-24T06:05:10.176Z,0.60
2018-12-24T06:07:39.177Z,0.70
2018-12-24T06:10:07.920Z,0.70
2018-12-24T06:12:36.160Z,1.00
2018-12-24T06:15:04.497Z,0.90
2018-12-24T06:17:32.765Z,0.80
2018-12-24T06:20:01.319Z,0.90
2018-12-24T06:22:29.555Z,0.97
2018-12-24T06:24:58.158Z,1.07
2018-12-24T06:27:26.401Z,0.90
2018-12-24T06:29:54.674Z,0.97
2018-12-24T06:32:23.319Z,0.87
2018-12-24T06:34:51.903Z,0.70
2018-12-24T06:37:20.154Z,1.10
2018-12-24T06:39:48.426Z,1.10
2018-12-24T06:42:18.187Z,0.90
2018-12-24T06:44:46.722Z,0.90
2018-12-24T06:47:14.946Z,0.90
2018-12-24T06:49:43.210Z,0.90
2018-12-24T06:52:11.807Z,2.60
2018-12-24T06:54:40.368Z,1.93
2018-12-24T06:57:09.003Z,3.00
2018-12-24T06:59:37.384Z,2.00
2018-12-24T07:02:06.238Z,1.60
2018-12-24T07:04:35.132Z,2.80
2018-12-24T07:07:03.418Z,8.97
2018-12-24T07:09:31.983Z,4.60
2018-12-24T07:12:00.230Z,3.57
2018-12-24T07:14:28.787Z,2.23
2018-12-24T07:16:57.147Z,1.80
2018-12-24T07:19:25.741Z,2.20
2018-12-24T07:21:54.334Z,1.70
2018-12-24T07:24:22.973Z,2.57
2018-12-24T07:26:51.194Z,2.70
2018-12-24T07:29:19.470Z,1.97
2018-12-24T07:31:48.035Z,1.20
2018-12-24T07:34:16.650Z,1.93
2018-12-24T07:36:45.194Z,2.50
2018-12-24T07:39:13.438Z,2.80
2018-12-24T07:41:41.799Z,2.67
2018-12-24T07:44:10.035Z,2.20
2018-12-24T07:46:38.610Z,3.70
2018-12-24T07:49:07.209Z,3.63
2018-12-24T07:51:35.760Z,2.50
2018-12-24T07:54:04.019Z,4.67
2018-12-24T07:56:32.283Z,7.07
2018-12-24T07:59:00.519Z,6.53
2018-12-24T08:01:29.139Z,5.53
2018-12-24T08:03:57.682Z,4.40
2018-12-24T08:06:25.927Z,9.37
2018-12-24T08:08:54.182Z,7.50
2018-12-24T08:11:22.448Z,6.27
2018-12-24T08:13:50.719Z,5.97
2018-12-24T08:16:19.319Z,4.90
2018-12-24T08:18:47.875Z,5.23
2018-12-24T08:21:16.218Z,4.30
2018-12-24T08:23:44.462Z,3.80
2018-12-24T08:26:12.702Z,4.77
2018-12-24T08:28:40.970Z,4.90
2018-12-24T08:31:09.546Z,5.20
2018-12-24T08:33:38.117Z,4.70
2018-12-24T08:36:06.352Z,5.43
2018-12-24T08:38:34.633Z,10.10
2018-12-24T08:41:02.898Z,11.20
2018-12-24T08:43:31.187Z,7.30
2018-12-24T08:45:59.422Z,4.40
2018-12-24T08:48:28.002Z,3.23
2018-12-24T08:50:56.570Z,3.33
2018-12-24T08:53:24.850Z,3.53
2018-12-24T08:55:53.095Z,3.70
2018-12-24T08:58:21.338Z,2.87
2018-12-24T09:00:49.616Z,2.73
2018-12-24T09:03:17.880Z,3.60
2018-12-24T09:05:46.129Z,3.87
2018-12-24T09:08:14.511Z,3.50
2018-12-24T09:10:43.069Z,3.30
2018-12-24T09:13:11.295Z,2.57
2018-12-24T09:15:39.548Z,2.60
2018-12-24T09:18:07.794Z,2.47
2018-12-24T09:20:36.044Z,2.57
2018-12-24T09:23:04.609Z,2.40
2018-12-24T09:25:33.215Z,2.37
2018-12-24T09:28:01.437Z,2.30
2018-12-24T09:30:29.666Z,2.50
2018-12-24T09:32:57.942Z,2.93
2018-12-24T09:35:26.503Z,3.10
2018-12-24T09:37:54.733Z,4.30
2018-12-24T09:40:23.327Z,3.80
2018-12-24T09:42:51.833Z,3.77
2018-12-24T09:45:20.225Z,3.40
2018-12-24T09:47:48.728Z,2.97
2018-12-24T09:50:17.294Z,2.50
2018-12-24T09:52:45.885Z,2.70
2018-12-24T09:55:14.150Z,2.03
2018-12-24T09:57:42.388Z,2.10
2018-12-24T10:00:11.930Z,2.33
2018-12-24T10:02:40.200Z,2.37
2018-12-24T10:05:08.738Z,2.43
2018-12-24T10:07:40.091Z,2.60
2018-12-24T10:10:10.011Z,2.57
2018-12-24T10:12:38.239Z,2.10
2018-12-24T10:15:08.223Z,2.80
2018-12-24T10:17:37.067Z,2.43
2018-12-24T10:20:05.698Z,2.83
2018-12-24T10:22:34.315Z,2.30
2018-12-24T10:25:02.595Z,2.23
2018-12-24T10:27:30.838Z,2.33
2018-12-24T10:29:59.092Z,2.70
2018-12-24T10:32:27.337Z,4.03
2018-12-24T10:34:55.643Z,3.27
2018-12-24T10:37:24.180Z,3.37
2018-12-24T10:39:52.431Z,3.40
2018-12-24T10:42:20.697Z,3.37
2018-12-24T10:44:48.957Z,2.70
2018-12-24T10:47:17.487Z,2.40
2018-12-24T10:49:45.751Z,2.93
2018-12-24T10:52:14.326Z,3.50
2018-12-24T10:54:42.578Z,3.17
2018-12-24T10:57:10.811Z,4.10
2018-12-24T10:59:39.069Z,3.40
2018-12-24T11:02:07.357Z,4.27
2018-12-24T11:04:35.618Z,4.60
2018-12-24T11:07:03.893Z,3.87
2018-12-24T11:09:32.183Z,3.70
2018-12-24T11:12:00.502Z,3.40
2018-12-24T11:14:29.082Z,3.20
2018-12-24T11:16:57.337Z,3.83
2018-12-24T11:19:25.662Z,4.40
2018-12-24T11:21:53.938Z,4.07
2018-12-24T11:24:22.185Z,3.70
2018-12-24T11:26:50.444Z,4.43
2018-12-24T11:29:19.019Z,3.67
2018-12-24T11:31:47.609Z,4.50
2018-12-24T11:34:15.870Z,4.50
2018-12-24T11:36:44.138Z,5.20
2018-12-24T11:39:12.395Z,6.43
2018-12-24T11:41:40.635Z,13.40
2018-12-24T11:44:08.905Z,23.47
2018-12-24T11:46:37.464Z,4.37
2018-12-24T11:49:05.737Z,7.80
2018-12-24T11:51:33.988Z,9.10
2018-12-24T11:54:02.262Z,12.30
2018-12-24T11:56:30.508Z,17.13
2018-12-24T11:58:58.782Z,13.67
2018-12-24T12:01:27.056Z,8.43
2018-12-24T12:03:55.305Z,6.40
2018-12-24T12:06:23.908Z,11.67
2018-12-24T12:08:52.181Z,24.67
2018-12-24T12:11:20.550Z,18.73
2018-12-24T12:13:49.132Z,14.97
2018-12-24T12:16:17.680Z,9.67
2018-12-24T12:18:46.246Z,8.07
2018-12-24T12:21:14.528Z,5.70
2018-12-24T12:23:42.792Z,4.90
2018-12-24T12:26:11.396Z,3.47
2018-12-24T12:28:39.666Z,2.60
2018-12-24T12:31:07.894Z,2.20
2018-12-24T12:33:36.160Z,2.60
2018-12-24T12:36:04.396Z,2.27
2018-12-24T12:38:32.656Z,2.00
2018-12-24T12:41:00.928Z,2.70
2018-12-24T12:43:29.845Z,3.93
2018-12-24T12:45:58.430Z,9.67
2018-12-24T12:48:26.701Z,17.17
2018-12-24T12:50:55.227Z,16.47
2018-12-24T12:53:23.491Z,12.47
2018-12-24T12:55:51.740Z,11.57
2018-12-24T12:58:19.985Z,9.30
2018-12-24T13:00:48.586Z,9.83
2018-12-24T13:03:17.173Z,5.83
2018-12-24T13:05:45.454Z,5.47
2018-12-24T13:08:14.010Z,5.20
2018-12-24T13:10:42.260Z,4.20
2018-12-24T13:13:11.114Z,3.93
2018-12-24T13:15:39.462Z,3.40
2018-12-24T13:18:08.065Z,3.17
2018-12-24T13:20:36.291Z,2.83
2018-12-24T13:23:04.548Z,3.07
2018-12-24T13:25:33.137Z,2.97
2018-12-24T13:28:01.370Z,2.60
2018-12-24T13:30:29.930Z,3.40
2018-12-24T13:32:58.174Z,3.17
2018-12-24T13:35:26.426Z,3.30
2018-12-24T13:37:54.712Z,3.47
2018-12-24T13:40:23.362Z,3.30
2018-12-24T13:42:51.951Z,2.60
2018-12-24T13:45:20.524Z,4.00
2018-12-24T13:47:48.814Z,4.70
2018-12-24T13:50:17.056Z,5.27
2018-12-24T13:52:45.635Z,4.60
2018-12-24T13:55:13.980Z,3.80
2018-12-24T13:58:20.479Z,3.23
2018-12-24T14:00:48.960Z,3.97
2018-12-24T14:03:17.428Z,3.83
2018-12-24T14:05:45.913Z,4.63
2018-12-24T14:08:14.057Z,3.73
2018-12-24T14:10:42.545Z,3.30
2018-12-24T14:13:11.020Z,2.73
2018-12-24T14:15:39.498Z,2.17
2018-12-24T14:18:07.989Z,2.10
2018-12-24T14:20:36.127Z,2.70
2018-12-24T14:23:04.969Z,2.07
2018-12-24T14:25:33.100Z,2.00
2018-12-24T14:28:01.615Z,2.00
2018-12-24T14:30:30.075Z,2.10
2018-12-24T14:32:58.205Z,2.50
2018-12-24T14:35:26.704Z,2.00
2018-12-24T14:37:55.229Z,1.90
2018-12-24T14:40:23.716Z,2.00
2018-12-24T14:42:52.480Z,2.30
2018-12-24T14:45:20.650Z,2.13
2018-12-24T14:47:49.118Z,2.20
2018-12-24T14:50:17.597Z,2.40
2018-12-24T14:52:46.058Z,2.20
2018-12-24T14:55:14.551Z,2.70
2018-12-24T14:57:43.032Z,4.30
2018-12-24T15:00:11.513Z,5.30
2018-12-24T15:02:40.326Z,6.07
2018-12-24T15:05:08.823Z,8.87
2018-12-24T15:07:37.292Z,5.60
2018-12-24T15:10:06.366Z,3.93
2018-12-24T15:12:34.932Z,4.60
2018-12-24T15:15:03.668Z,4.33
2018-12-24T15:17:32.163Z,3.53
2018-12-24T15:20:00.636Z,3.60
2018-12-24T15:22:29.104Z,2.87
2018-12-24T15:24:57.855Z,2.30
2018-12-24T15:27:26.640Z,2.10
2018-12-24T15:29:55.111Z,2.30
2018-12-24T15:32:23.601Z,2.60
2018-12-24T15:34:52.101Z,2.10
2018-12-24T15:37:20.563Z,3.43
2018-12-24T15:39:49.028Z,3.40
2018-12-24T15:42:17.539Z,2.80
2018-12-24T15:44:46.001Z,2.47
2018-12-24T15:47:14.484Z,1.90
2018-12-24T15:49:42.611Z,1.73
2018-12-24T15:52:11.172Z,1.80
2018-12-24T15:54:39.641Z,2.20
2018-12-24T15:57:07.849Z,3.13
2018-12-24T15:59:35.993Z,3.30
2018-12-24T16:02:04.167Z,3.23
2018-12-24T16:04:32.620Z,3.53
2018-12-24T16:07:01.106Z,3.73
2018-12-24T16:09:29.241Z,3.60
2018-12-24T16:11:57.406Z,3.90
2018-12-24T16:14:25.904Z,3.60
2018-12-24T16:16:54.045Z,3.57
2018-12-24T16:19:22.491Z,3.40
2018-12-24T16:21:50.640Z,3.40
2018-12-24T16:24:19.108Z,3.43
2018-12-24T16:26:47.272Z,3.50
2018-12-24T16:29:15.417Z,3.50
2018-12-24T16:31:43.568Z,3.40
2018-12-24T16:34:11.765Z,4.17
2018-12-24T16:36:39.905Z,4.03
2018-12-24T16:39:08.036Z,3.90
2018-12-24T16:41:36.212Z,4.70
2018-12-24T16:44:04.420Z,4.97
2018-12-24T16:46:32.584Z,3.97
2018-12-24T16:49:00.706Z,4.07
2018-12-24T16:51:28.885Z,3.57
2018-12-24T16:53:57.020Z,3.50
2018-12-24T16:56:25.145Z,3.00
2018-12-24T16:58:53.323Z,11.83
2018-12-24T17:01:21.808Z,8.93
2018-12-24T17:03:49.982Z,7.13
2018-12-24T17:06:18.131Z,5.23
2018-12-24T17:08:46.263Z,5.00
2018-12-24T17:11:14.406Z,4.23
2018-12-24T17:13:42.556Z,4.00
2018-12-24T17:16:11.040Z,3.93
2018-12-24T17:18:39.221Z,4.00
2018-12-24T17:21:07.386Z,3.63
2018-12-24T17:23:35.921Z,4.53
2018-12-24T17:26:04.119Z,4.43
2018-12-24T17:28:32.313Z,4.50
2018-12-24T17:31:00.453Z,4.17
2018-12-24T17:33:28.588Z,4.37
2018-12-24T17:35:56.759Z,4.20
2018-12-24T17:38:24.929Z,4.30
2018-12-24T17:40:53.065Z,4.60
2018-12-24T17:43:21.235Z,4.10
2018-12-24T17:45:49.369Z,4.40
2018-12-24T17:48:17.845Z,4.17
2018-12-24T17:50:45.996Z,4.80
2018-12-24T17:53:14.126Z,4.17
2018-12-24T17:55:42.698Z,4.37
2018-12-24T17:58:10.822Z,4.53
2018-12-24T18:00:38.998Z,4.87
2018-12-24T18:03:07.130Z,4.50
2018-12-24T18:05:35.305Z,4.90
2018-12-24T18:08:03.437Z,4.40
2018-12-24T18:10:31.856Z,5.33
2018-12-24T18:12:59.993Z,4.70
2018-12-24T18:15:28.155Z,5.00
2018-12-24T18:17:56.319Z,5.13
2018-12-24T18:20:24.471Z,5.27
2018-12-24T18:22:52.612Z,5.03
2018-12-24T18:25:20.781Z,5.80
2018-12-24T18:27:48.939Z,5.33
2018-12-24T18:30:17.081Z,5.93
2018-12-24T18:32:45.574Z,5.00
2018-12-24T18:35:13.695Z,5.23
2018-12-24T18:37:41.855Z,5.37
2018-12-24T18:40:09.975Z,5.00
2018-12-24T18:42:38.139Z,4.67
2018-12-24T18:45:06.569Z,4.70
2018-12-24T18:47:34.729Z,4.90
2018-12-24T18:50:02.958Z,5.10
2018-12-24T18:52:31.396Z,4.77
2018-12-24T18:54:59.549Z,4.23
2018-12-24T18:57:27.708Z,4.70
2018-12-24T18:59:55.843Z,4.33
2018-12-24T19:02:23.994Z,4.40
2018-12-24T19:04:52.710Z,4.10
2018-12-24T19:07:20.852Z,4.20
2018-12-24T19:09:49.314Z,4.27
2018-12-24T19:12:17.702Z,4.30
2018-12-24T19:14:46.152Z,4.67
2018-12-24T19:17:14.316Z,4.53
2018-12-24T19:19:42.452Z,4.43
2018-12-24T19:22:10.585Z,4.70
2018-12-24T19:24:38.861Z,5.33
2018-12-24T19:27:07.061Z,5.00
2018-12-24T19:29:35.224Z,5.30
2018-12-24T19:32:03.462Z,4.50
2018-12-24T19:34:31.631Z,4.93
2018-12-24T19:36:59.771Z,4.47
2018-12-24T19:39:27.908Z,5.07
2018-12-24T19:41:56.087Z,4.47
2018-12-24T19:44:24.574Z,4.70
2018-12-24T19:46:53.035Z,4.80
2018-12-24T19:49:21.199Z,4.80
2018-12-24T19:51:49.318Z,4.73
2018-12-24T19:54:17.509Z,5.00
2018-12-24T19:56:45.643Z,5.43
2018-12-24T19:59:13.787Z,5.23
2018-12-24T20:01:41.947Z,5.07
2018-12-24T20:04:10.222Z,5.37
2018-12-24T20:06:38.414Z,5.60
2018-12-24T20:09:06.552Z,5.73
2018-12-24T20:11:35.033Z,6.23
2018-12-24T20:14:03.203Z,6.83
2018-12-24T20:16:31.356Z,7.50
2018-12-24T20:18:59.504Z,7.30
2018-12-24T20:21:27.632Z,7.17
2018-12-24T20:23:55.800Z,7.07
2018-12-24T20:26:23.935Z,7.10
2018-12-24T20:28:52.087Z,7.20
2018-12-24T20:31:20.234Z,7.50
2018-12-24T20:33:48.383Z,7.33
2018-12-24T20:36:16.537Z,7.43
2018-12-24T20:38:44.717Z,7.70
2018-12-24T20:41:12.869Z,6.90
2018-12-24T20:43:40.990Z,6.70
2018-12-24T20:46:09.187Z,6.80
2018-12-24T20:48:37.357Z,7.43
2018-12-24T20:51:05.811Z,7.77
2018-12-24T20:53:34.273Z,6.83
2018-12-24T20:56:02.445Z,7.40
2018-12-24T20:58:30.566Z,7.13
2018-12-24T21:00:59.050Z,7.07
2018-12-24T21:03:27.204Z,6.97
2018-12-24T21:05:55.359Z,6.97
2018-12-24T21:08:23.529Z,6.60
2018-12-24T21:10:51.690Z,6.27
2018-12-24T21:13:19.818Z,6.57
2018-12-24T21:15:48.307Z,6.63
2018-12-24T21:18:16.462Z,6.23
2018-12-24T21:20:44.625Z,6.70
2018-12-24T21:23:12.798Z,6.53
2018-12-24T21:25:40.934Z,6.23
2018-12-24T21:28:09.399Z,6.47
2018-12-24T21:30:37.563Z,6.67
2018-12-24T21:33:05.680Z,6.20
2018-12-24T21:35:34.177Z,6.30
2018-12-24T21:38:02.334Z,6.40
2018-12-24T21:40:30.483Z,6.63
2018-12-24T21:42:59.260Z,6.03
2018-12-24T21:45:27.476Z,6.57
2018-12-24T21:47:55.912Z,6.53
2018-12-24T21:50:24.064Z,6.50
2018-12-24T21:52:52.230Z,6.37
2018-12-24T21:55:20.358Z,6.40
2018-12-24T21:57:48.521Z,6.50
2018-12-24T22:00:16.974Z,7.37
2018-12-24T22:02:45.456Z,6.80
2018-12-24T22:05:14.248Z,7.20
2018-12-24T22:07:42.486Z,7.07
2018-12-24T22:10:10.635Z,8.20
2018-12-24T22:12:39.091Z,8.33
2018-12-24T22:15:07.562Z,7.73
2018-12-24T22:17:35.744Z,8.57
2018-12-24T22:20:04.056Z,7.77
2018-12-24T22:22:32.191Z,7.23
2018-12-24T22:25:00.383Z,7.90
2018-12-24T22:27:28.553Z,7.70
2018-12-24T22:29:56.690Z,8.00
2018-12-24T22:32:25.195Z,8.10
2018-12-24T22:34:53.326Z,8.50
2018-12-24T22:37:21.820Z,8.40
2018-12-24T22:39:49.977Z,8.43
2018-12-24T22:42:18.372Z,8.17
2018-12-24T22:44:46.531Z,7.87
2018-12-24T22:47:14.698Z,8.23
2018-12-24T22:49:42.863Z,8.20
2018-12-24T22:52:10.999Z,8.73
2018-12-24T22:54:39.173Z,8.63
2018-12-24T22:57:07.335Z,8.73
2018-12-24T22:59:35.510Z,8.33
2018-12-24T23:02:03.802Z,8.73
2018-12-24T23:04:31.974Z,8.23
2018-12-24T23:07:00.126Z,8.63
2018-12-24T23:09:28.279Z,8.13
2018-12-24T23:11:56.527Z,8.80
2018-12-24T23:14:24.998Z,7.67
2018-12-24T23:16:53.463Z,7.47
2018-12-24T23:19:22.105Z,7.93
2018-12-24T23:21:50.610Z,7.37
2018-12-24T23:24:19.070Z,7.53
2018-12-24T23:26:47.234Z,7.67
2018-12-24T23:29:15.396Z,7.20
2018-12-24T23:31:43.818Z,7.60
2018-12-24T23:34:11.980Z,6.80
2018-12-24T23:36:40.227Z,6.80
2018-12-24T23:39:08.374Z,7.47
2018-12-24T23:41:36.864Z,7.67
2018-12-24T23:44:05.342Z,8.63
2018-12-24T23:46:33.808Z,8.30
2018-12-24T23:49:02.626Z,7.70
2018-12-24T23:51:31.099Z,7.33
2018-12-24T23:53:59.589Z,6.63
2018-12-24T23:56:28.061Z,6.43
2018-12-24T23:58:56.697Z,6.63
